Time;durP1;ratioP1;P1;durP2;ratioP2;P2;SDS_P1;SDS_P2;PMS_P1;PMS_P2;Temp;Humidity;BMP_temperature;BMP_pressure;BME280_temperature;BME280_humidity;BME280_pressure;Samples;Min_cycle;Max_cycle;Signal;HPM_P1;HPM_P2
2022/12/17 13:07:21;;;;;;;80.50;39.30;;;;;;;-2.32;97.41;102003.13;4998968;28;20397;-89
2022/12/17 13:09:54;;;;;;;84.65;40.50;;;;;;;-2.34;96.71;101997.09;4983165;28;20531;-90
2022/12/17 13:12:25;;;;;;;88.70;42.13;;;;;;;-2.39;96.71;101993.53;4989280;28;20058;-90
2022/12/17 13:15:05;;;;;;;86.88;41.13;;;;;;;-2.40;96.86;102003.84;4949326;28;20047;-90
2022/12/17 13:17:36;;;;;;;88.43;40.60;;;;;;;-2.29;96.55;101999.75;4978567;28;20053;-90
2022/12/17 13:20:32;;;;;;;74.82;39.45;;;;;;;-2.30;95.85;101997.97;4988971;28;20116;-90
2022/12/17 13:23:27;;;;;;;74.63;36.45;;;;;;;-2.39;95.51;102003.84;5003572;28;20046;-90
2022/12/17 13:26:34;;;;;;;75.78;35.65;;;;;;;-2.41;95.51;102010.72;4971220;28;20073;-90
2022/12/17 13:29:35;;;;;;;75.65;36.88;;;;;;;-2.52;95.75;102001.06;4980263;28;20046;-90
2022/12/17 13:32:25;;;;;;;74.00;37.35;;;;;;;-2.65;96.08;102007.72;4950783;28;20038;-90
2022/12/17 13:35:25;;;;;;;84.05;36.92;;;;;;;-2.72;96.65;102008.44;4993025;28;20085;-90
2022/12/17 13:42:26;;;;;;;71.93;38.10;;;;;;;-2.57;95.96;102016.44;5006276;28;20149;-89
2022/12/17 13:44:59;;;;;;;78.90;38.42;;;;;;;-2.58;96.11;102020.72;4983177;28;20046;-90
2022/12/17 13:47:37;;;;;;;76.65;37.33;;;;;;;-2.53;96.03;102025.09;4993103;28;20092;-90
2022/12/17 13:50:21;;;;;;;78.13;37.22;;;;;;;-2.56;96.70;102031.97;4997696;28;20060;-90
2022/12/17 13:53:09;;;;;;;75.40;38.13;;;;;;;-2.48;96.53;102028.63;4959769;28;20038;-90
2022/12/17 13:55:39;;;;;;;79.80;37.47;;;;;;;-2.49;96.30;102026.91;4979031;28;20468;-89
2022/12/17 13:58:23;;;;;;;69.57;36.97;;;;;;;-2.42;96.12;102037.34;4999621;28;20034;-91
2022/12/17 14:01:08;;;;;;;75.70;37.20;;;;;;;-2.38;96.18;102040.84;4981810;28;20045;-90
2022/12/17 14:03:54;;;;;;;78.47;38.60;;;;;;;-2.38;95.84;102046.00;4985329;28;20136;-90
2022/12/17 14:07:12;;;;;;;76.63;36.58;;;;;;;-2.45;95.97;102052.75;4997220;28;20053;-90
2022/12/17 14:09:43;;;;;;;73.90;36.10;;;;;;;-2.42;95.77;102057.13;5011201;28;20088;-90
2022/12/17 14:12:21;;;;;;;79.28;38.70;;;;;;;-2.35;95.35;102054.66;4977980;28;20116;-91
2022/12/17 14:15:19;;;;;;;78.93;38.90;;;;;;;-2.43;95.61;102052.78;4964313;28;20049;-91
2022/12/17 14:17:48;;;;;;;75.97;37.00;;;;;;;-2.44;95.83;102063.94;4992599;28;20038;-89
2022/12/17 14:20:20;;;;;;;70.25;36.17;;;;;;;-2.51;96.17;102064.69;4987049;28;20041;-89
2022/12/17 14:22:50;;;;;;;70.40;35.53;;;;;;;-2.47;96.06;102063.91;4983352;28;20101;-90
2022/12/17 14:25:25;;;;;;;79.97;38.65;;;;;;;-2.44;95.94;102069.97;4986862;28;20058;-88
2022/12/17 14:28:05;;;;;;;79.27;36.60;;;;;;;-2.38;95.63;102066.66;4992386;28;20580;-89
2022/12/17 14:30:34;;;;;;;78.60;37.75;;;;;;;-2.37;95.61;102068.38;5009846;28;20159;-90
2022/12/17 14:33:02;;;;;;;74.53;35.72;;;;;;;-2.30;95.57;102068.53;5035492;28;20037;-89
2022/12/17 14:35:38;;;;;;;80.38;36.72;;;;;;;-2.20;96.15;102063.50;4998682;28;20054;-89
2022/12/17 14:38:17;;;;;;;75.18;36.40;;;;;;;-2.16;95.68;102066.16;4971703;28;20033;-89
2022/12/17 14:43:59;;;;;;;74.53;36.67;;;;;;;-2.14;94.92;102071.34;5006572;28;20536;-91
2022/12/17 14:46:32;;;;;;;73.85;36.58;;;;;;;-2.18;95.13;102074.72;4969994;28;20125;-90
2022/12/17 14:49:03;;;;;;;70.72;35.53;;;;;;;-2.13;94.25;102075.66;4984756;28;20479;-90
2022/12/17 14:51:37;;;;;;;67.53;33.97;;;;;;;-2.09;94.15;102077.44;4978299;28;20038;-90
2022/12/17 14:54:29;;;;;;;67.18;32.75;;;;;;;-2.04;94.16;102084.41;4986700;28;20045;-90
2022/12/17 14:57:00;;;;;;;73.00;35.00;;;;;;;-2.02;93.60;102086.16;5003037;28;20033;-91
2022/12/17 14:59:42;;;;;;;72.80;36.85;;;;;;;-2.03;93.50;102098.16;5003696;28;20034;-90
2022/12/17 15:02:29;;;;;;;73.85;35.78;;;;;;;-2.11;94.02;102092.03;4990907;28;20039;-89
2022/12/17 15:05:06;;;;;;;73.15;34.20;;;;;;;-2.09;93.75;102093.78;4987756;28;20030;-90
2022/12/17 15:07:33;;;;;;;74.13;33.53;;;;;;;-2.04;93.61;102092.16;4987011;28;20060;-88
2022/12/17 15:10:11;;;;;;;69.93;32.42;;;;;;;-2.10;93.45;102088.59;4995461;28;20033;-89
2022/12/17 15:12:50;;;;;;;74.90;34.58;;;;;;;-2.14;93.22;102092.84;5007845;28;20507;-89
2022/12/17 15:15:23;;;;;;;70.95;32.15;;;;;;;-2.23;93.35;102097.84;5010742;28;20046;-90
2022/12/17 15:17:51;;;;;;;68.38;33.17;;;;;;;-2.37;93.27;102100.19;5017054;28;20046;-91
2022/12/17 15:20:20;;;;;;;67.18;31.25;;;;;;;-2.40;93.58;102105.28;4970499;28;20057;-89
2022/12/17 15:22:53;;;;;;;74.55;33.10;;;;;;;-2.44;93.97;102102.63;4992361;28;20506;-88
2022/12/17 15:25:21;;;;;;;75.25;33.47;;;;;;;-2.47;94.74;102105.16;4980138;28;20049;-89
2022/12/17 15:27:48;;;;;;;68.03;33.08;;;;;;;-2.55;94.46;102105.00;4990921;28;20068;-88
2022/12/17 15:30:18;;;;;;;78.35;34.95;;;;;;;-2.61;94.44;102118.66;4997706;28;20038;-89
2022/12/17 15:32:47;;;;;;;75.97;34.78;;;;;;;-2.63;94.93;102120.31;4968445;28;20042;-89
2022/12/17 15:35:15;;;;;;;72.65;36.30;;;;;;;-2.59;94.88;102124.72;4986571;28;20100;-89
2022/12/17 15:37:44;;;;;;;72.57;33.42;;;;;;;-2.55;95.20;102131.66;5006754;28;20060;-91
2022/12/17 15:40:16;;;;;;;80.90;33.28;;;;;;;-2.56;94.84;102137.66;5009104;28;20072;-89
2022/12/17 15:43:10;;;;;;;72.78;33.28;;;;;;;-2.45;94.77;102142.16;5017422;28;20033;-94
2022/12/17 15:45:47;;;;;;;76.30;34.92;;;;;;;-2.34;94.05;102133.78;5011983;28;20037;-92
2022/12/17 15:48:20;;;;;;;78.28;34.88;;;;;;;-2.34;93.91;102136.38;5024026;28;20042;-91
2022/12/17 15:50:48;;;;;;;77.20;35.90;;;;;;;-2.35;93.76;102139.75;4978830;28;20042;-88
2022/12/17 15:53:27;;;;;;;74.03;33.40;;;;;;;-2.51;93.84;102139.47;4989330;28;20047;-89
2022/12/17 15:56:00;;;;;;;66.57;32.25;;;;;;;-2.50;94.08;102144.63;5012486;28;20042;-91
2022/12/17 15:58:35;;;;;;;80.10;36.53;;;;;;;-2.52;94.43;102141.19;4977631;28;20382;-89
2022/12/17 16:01:12;;;;;;;79.13;36.10;;;;;;;-2.59;94.48;102141.88;4973585;28;20057;-93
2022/12/17 16:04:08;;;;;;;77.82;34.67;;;;;;;-2.69;94.63;102145.13;5006484;28;20041;-91
2022/12/17 16:06:49;;;;;;;77.85;35.13;;;;;;;-2.66;94.89;102155.47;5021785;28;20068;-90
2022/12/17 16:09:23;;;;;;;77.75;36.53;;;;;;;-2.60;94.99;102159.06;5002601;28;20053;-90
2022/12/17 16:11:57;;;;;;;80.00;36.83;;;;;;;-2.60;94.72;102153.91;5015536;28;20030;-92
2022/12/17 16:14:30;;;;;;;78.32;36.03;;;;;;;-2.62;94.97;102154.72;5003291;28;20037;-91
2022/12/17 16:17:01;;;;;;;74.93;36.25;;;;;;;-2.65;94.96;102147.81;4990838;28;20478;-91
2022/12/17 16:19:33;;;;;;;78.63;35.78;;;;;;;-2.64;95.15;102151.25;4990831;28;20377;-92
2022/12/17 16:22:02;;;;;;;72.38;35.20;;;;;;;-2.76;94.85;102149.28;4998254;28;20103;-89
2022/12/17 16:24:36;;;;;;;72.65;33.72;;;;;;;-2.82;95.26;102149.16;4977722;28;20056;-90
2022/12/17 16:27:06;;;;;;;74.60;34.08;;;;;;;-2.88;95.16;102152.50;4959577;28;20069;-91
2022/12/17 16:29:35;;;;;;;73.55;33.38;;;;;;;-2.84;95.84;102155.97;4975941;28;20042;-89
2022/12/17 16:32:39;;;;;;;65.35;33.83;;;;;;;-2.84;95.43;102164.59;5012090;28;20057;-89
2022/12/17 16:35:08;;;;;;;65.88;31.02;;;;;;;-2.75;94.45;102163.91;4995542;28;20057;-91
2022/12/17 16:37:37;;;;;;;76.43;31.45;;;;;;;-2.69;95.07;102163.19;4979124;28;20038;-90
2022/12/17 16:40:19;;;;;;;72.57;33.72;;;;;;;-2.67;94.75;102161.47;5010725;28;20069;-90
2022/12/17 16:42:53;;;;;;;72.70;34.15;;;;;;;-2.60;94.84;102160.78;5001095;28;20042;-91
2022/12/17 16:45:25;;;;;;;73.55;36.60;;;;;;;-2.53;94.35;102160.03;5030045;28;20041;-90
2022/12/17 16:48:00;;;;;;;81.43;35.90;;;;;;;-2.63;94.18;102171.88;4968374;28;20074;-90
2022/12/17 16:51:01;;;;;;;73.75;35.88;;;;;;;-2.75;94.22;102174.22;4992560;28;20133;-90
2022/12/17 16:53:34;;;;;;;;;;;;;;;-2.75;94.66;102183.66;5005422;28;20041;-90
2022/12/17 16:56:02;;;;;;;79.30;37.78;;;;;;;-2.82;94.66;102180.09;4989057;28;19917;-88
2022/12/17 16:58:32;;;;;;;82.68;40.72;;;;;;;-2.79;94.54;102177.59;4993805;28;20171;-91
2022/12/17 17:01:01;;;;;;;76.45;37.80;;;;;;;-2.78;94.81;102181.03;4941161;28;20038;-89
2022/12/17 17:03:29;;;;;;;79.88;38.67;;;;;;;-2.73;95.10;102182.00;5005639;28;20038;-89
2022/12/17 17:06:01;;;;;;;77.63;37.30;;;;;;;-2.72;94.31;102178.56;4965375;28;20097;-90
2022/12/17 17:08:30;;;;;;;67.82;32.78;;;;;;;-2.80;94.15;102181.84;4994991;28;20052;-91
2022/12/17 17:11:23;;;;;;;78.03;37.60;;;;;;;-2.84;94.36;102182.66;4971584;28;20034;-89
2022/12/17 17:13:53;;;;;;;79.10;37.05;;;;;;;-2.84;93.92;102186.91;4963791;28;20149;-90
2022/12/17 17:16:25;;;;;;;80.15;39.55;;;;;;;-2.85;94.40;102180.03;4987891;28;20042;-91
2022/12/17 17:18:54;;;;;;;80.70;37.83;;;;;;;-2.91;94.65;102187.63;4991802;28;20096;-89
2022/12/17 17:21:27;;;;;;;84.18;40.70;;;;;;;-2.87;94.98;102187.72;5005812;28;20073;-91
2022/12/17 17:24:16;;;;;;;81.10;39.95;;;;;;;-2.86;94.75;102188.59;4988617;28;20077;-90
2022/12/17 17:26:50;;;;;;;85.80;40.67;;;;;;;-2.86;94.81;102193.75;5014564;28;20152;-91
2022/12/17 17:29:35;;;;;;;77.03;38.85;;;;;;;-2.80;94.04;102187.00;4989299;28;20475;-90
2022/12/17 17:32:06;;;;;;;78.82;39.08;;;;;;;-2.87;94.00;102192.00;4984619;28;20057;-91
2022/12/17 17:34:45;;;;;;;69.85;35.15;;;;;;;-2.94;94.32;102206.47;5000372;28;20053;-90
2022/12/17 17:37:20;;;;;;;83.97;39.65;;;;;;;-3.05;94.47;102205.38;5010803;28;20132;-91
2022/12/17 17:39:52;;;;;;;76.88;38.00;;;;;;;-3.06;94.93;102216.53;5002620;28;20037;-90
2022/12/17 17:42:27;;;;;;;71.35;36.90;;;;;;;-2.97;94.70;102218.41;4986506;28;20053;-90
2022/12/17 17:44:58;;;;;;;80.82;39.72;;;;;;;-3.09;94.57;102217.31;5018748;28;20112;-90
2022/12/17 17:47:28;;;;;;;83.57;38.40;;;;;;;-3.25;95.24;102219.50;5002049;28;20042;-89
2022/12/17 17:49:58;;;;;;;68.13;36.10;;;;;;;-3.32;95.65;102216.78;4977019;28;20054;-90
2022/12/17 17:53:23;;;;;;;70.88;35.92;;;;;;;-3.25;95.94;102222.06;4967587;28;20042;-91
2022/12/17 17:55:54;;;;;;;74.32;37.95;;;;;;;-3.32;95.62;102226.22;5000040;28;20410;-90
2022/12/17 17:58:23;;;;;;;73.70;36.80;;;;;;;-3.21;96.16;102222.16;5004828;28;20068;-92
2022/12/17 18:00:52;;;;;;;81.80;38.72;;;;;;;-3.26;96.03;102218.63;5002540;28;20041;-89
2022/12/17 18:03:30;;;;;;;83.72;40.30;;;;;;;-3.34;96.04;102217.56;5021317;28;20058;-89
2022/12/17 18:06:06;;;;;;;76.15;39.20;;;;;;;-3.29;96.13;102223.69;4978390;28;20108;-90
2022/12/17 18:08:37;;;;;;;;;;;;;;;-3.28;95.73;102228.03;4957610;28;20046;-91
2022/12/17 18:11:08;;;;;;;83.43;39.20;;;;;;;-3.28;95.48;102225.44;4972730;28;19917;-89
2022/12/17 18:13:54;;;;;;;79.18;35.63;;;;;;;-3.19;95.79;102228.25;4979854;28;20384;-90
2022/12/17 18:16:31;;;;;;;81.55;38.90;;;;;;;-3.14;95.21;102231.78;4992380;28;20477;-90
2022/12/17 18:19:12;;;;;;;68.78;32.33;;;;;;;-3.10;95.02;102241.34;4978618;28;20040;-92
2022/12/17 18:21:42;;;;;;;72.53;36.17;;;;;;;-3.13;94.67;102236.09;4978636;28;20061;-91
2022/12/17 18:24:20;;;;;;;74.95;39.35;;;;;;;-3.12;94.67;102236.97;4977420;28;20188;-90
2022/12/17 18:26:50;;;;;;;75.35;38.20;;;;;;;-3.19;94.77;102233.41;4980083;28;20096;-91
2022/12/17 18:29:27;;;;;;;70.88;36.33;;;;;;;-3.16;95.28;102235.16;4974633;28;20050;-89
2022/12/17 18:31:55;;;;;;;71.80;33.60;;;;;;;-3.12;95.44;102237.84;5000562;28;20073;-90
2022/12/17 18:34:27;;;;;;;65.68;33.55;;;;;;;-3.09;94.60;102243.06;4992203;28;20105;-91
2022/12/17 18:36:55;;;;;;;64.70;32.05;;;;;;;-3.09;93.89;102243.06;4981255;28;20070;-92
2022/12/17 18:39:29;;;;;;;68.13;34.88;;;;;;;-3.13;94.32;102240.38;4992298;28;20045;-89
2022/12/17 18:44:56;;;;;;;67.97;33.10;;;;;;;-3.33;94.75;102247.66;5013330;28;20403;-90
2022/12/17 18:47:24;;;;;;;83.57;39.15;;;;;;;-3.26;94.80;102246.09;4997273;28;20547;-89
2022/12/17 18:49:53;;;;;;;77.95;37.97;;;;;;;-3.36;95.03;102255.28;4974403;28;20053;-90
2022/12/17 18:52:25;;;;;;;70.15;34.55;;;;;;;-3.53;94.98;102265.16;4988643;28;20046;-89
2022/12/17 18:54:54;;;;;;;74.07;34.50;;;;;;;-3.57;95.68;102261.63;5004538;28;20385;-89
2022/12/17 18:57:22;;;;;;;87.78;42.28;;;;;;;-3.60;96.30;102271.88;4968191;28;20053;-90
2022/12/17 18:59:51;;;;;;;85.65;41.58;;;;;;;-3.66;96.76;102275.97;4969814;28;20046;-89
2022/12/17 19:02:21;;;;;;;74.20;37.67;;;;;;;-3.65;96.71;102272.56;4985092;28;20361;-90
2022/12/17 19:04:51;;;;;;;73.95;35.80;;;;;;;-3.58;97.06;102277.06;4967015;28;20381;-89
2022/12/17 19:07:22;;;;;;;73.00;35.47;;;;;;;-3.52;96.35;102284.06;4972133;28;20044;-89
2022/12/17 19:09:53;;;;;;;69.55;36.05;;;;;;;-3.69;96.93;102281.94;4995024;28;20048;-91
2022/12/17 19:12:28;;;;;;;69.53;33.28;;;;;;;-3.71;97.25;102295.59;4983858;28;20061;-89
2022/12/17 19:14:56;;;;;;;69.00;33.95;;;;;;;-3.64;96.66;102289.78;4995864;28;20037;-91
2022/12/17 19:17:30;;;;;;;72.55;36.90;;;;;;;-3.65;96.86;102293.16;4987225;28;20047;-90
2022/12/17 19:19:58;;;;;;;75.40;36.85;;;;;;;-3.58;96.85;102297.66;4996137;28;20057;-91
2022/12/17 19:22:27;;;;;;;75.25;36.17;;;;;;;-3.54;96.99;102294.31;4988040;28;20049;-90
2022/12/17 19:24:56;;;;;;;73.82;36.25;;;;;;;-3.46;96.52;102297.09;4986083;28;20512;-90
2022/12/17 19:27:27;;;;;;;69.07;35.60;;;;;;;-3.41;96.27;102290.38;4992169;28;20042;-91
2022/12/17 19:29:58;;;;;;;80.32;37.25;;;;;;;-3.47;96.03;102308.22;5014923;28;20129;-92
2022/12/17 19:32:29;;;;;;;66.10;29.88;;;;;;;-3.53;96.48;102306.34;5013805;28;20106;-93
2022/12/17 19:34:58;;;;;;;66.70;30.95;;;;;;;-3.69;95.98;102305.09;4981730;28;20038;-90
2022/12/17 19:37:37;;;;;;;74.53;36.03;;;;;;;-3.90;96.53;102314.81;5004842;28;20030;-89
2022/12/17 19:40:12;;;;;;;67.13;31.42;;;;;;;-3.90;97.63;102307.97;5004800;28;20163;-89
2022/12/17 19:42:43;;;;;;;63.90;29.88;;;;;;;-3.97;97.23;102311.19;4983431;28;20064;-90
2022/12/17 19:45:17;;;;;;;59.30;30.42;;;;;;;-4.04;97.30;102316.13;4982977;28;20412;-89
2022/12/17 19:47:46;;;;;;;64.25;30.55;;;;;;;-4.15;97.81;102320.97;4993661;28;20064;-89
2022/12/17 19:50:17;;;;;;;57.03;28.65;;;;;;;-4.17;98.23;102320.91;4987232;28;20090;-90
2022/12/17 19:52:45;;;;;;;67.65;31.73;;;;;;;-4.09;98.07;102324.59;4988223;28;20038;-91
2022/12/17 19:55:19;;;;;;;70.45;32.08;;;;;;;-4.06;98.51;102326.38;5004838;28;20116;-91
2022/12/17 19:58:25;;;;;;;76.95;33.17;;;;;;;-4.17;98.37;102330.34;5022060;28;20129;-89
2022/12/17 20:01:10;;;;;;;68.00;30.85;;;;;;;-4.13;98.51;102327.91;4973915;28;20057;-89
2022/12/17 20:03:39;;;;;;;66.38;30.88;;;;;;;-4.08;98.11;102326.31;4991876;28;20041;-89
2022/12/17 20:06:10;;;;;;;63.17;27.83;;;;;;;-4.08;97.27;102323.75;4985388;28;20071;-88
2022/12/17 20:08:43;;;;;;;55.20;25.85;;;;;;;-4.10;97.25;102329.66;5022296;28;20049;-90
2022/12/17 20:14:48;;;;;;;54.65;26.48;;;;;;;-4.05;95.75;102338.41;4977450;28;20053;-90
2022/12/17 20:17:20;;;;;;;51.50;27.23;;;;;;;-4.01;95.95;102341.91;5030036;28;20037;-90
2022/12/17 20:19:58;;;;;;;55.97;28.70;;;;;;;-4.02;95.87;102347.91;5005028;28;20069;-90
2022/12/17 20:23:26;;;;;;;57.78;28.30;;;;;;;-4.02;95.64;102351.34;4986151;28;20047;-89
2022/12/17 20:26:16;;;;;;;63.70;29.63;;;;;;;-4.02;96.48;102353.91;5006038;28;20042;-87
2022/12/17 20:29:29;;;;;;;58.72;30.55;;;;;;;-4.08;96.02;102353.75;4995434;28;20048;-90
2022/12/17 20:31:58;;;;;;;62.80;30.20;;;;;;;-4.16;96.51;102358.66;5021302;28;20098;-90
2022/12/17 20:34:32;;;;;;;58.10;29.38;;;;;;;-4.21;96.51;102351.66;4990641;28;20042;-89
2022/12/17 20:37:05;;;;;;;57.50;28.33;;;;;;;-4.21;96.31;102351.66;5004906;28;20037;-89
2022/12/17 20:39:37;;;;;;;50.35;25.67;;;;;;;-4.34;96.14;102353.84;5002323;28;20080;-89
2022/12/17 20:42:10;;;;;;;60.58;29.85;;;;;;;-4.47;96.76;102350.88;4970102;28;20060;-92
2022/12/17 20:45:20;;;;;;;57.17;29.40;;;;;;;-4.67;97.43;102363.13;4953204;28;20050;-90
2022/12/17 20:47:52;;;;;;;54.92;28.90;;;;;;;-4.60;97.88;102365.03;4985821;28;20043;-90
2022/12/17 20:50:25;;;;;;;53.58;27.40;;;;;;;-4.65;98.22;102366.59;4954054;28;20058;-89
2022/12/17 20:52:56;;;;;;;58.75;28.77;;;;;;;-4.56;97.96;102368.56;4978235;28;20046;-88
2022/12/17 20:55:31;;;;;;;59.53;30.45;;;;;;;-4.48;97.13;102367.13;4989329;28;20054;-91
2022/12/17 20:58:06;;;;;;;56.65;30.17;;;;;;;-4.47;96.81;102367.16;4972336;28;20041;-88
2022/12/17 21:00:36;;;;;;;57.13;31.00;;;;;;;-4.45;97.07;102370.66;4985942;28;20042;-88
2022/12/17 21:03:36;;;;;;;53.80;30.38;;;;;;;-4.38;97.09;102370.00;4987155;28;20041;-90
2022/12/17 21:06:15;;;;;;;58.17;33.03;;;;;;;-4.39;96.39;102369.97;4972695;28;20049;-90
2022/12/17 21:08:48;;;;;;;56.45;29.95;;;;;;;-4.56;96.39;102369.44;4980125;28;20091;-90
2022/12/17 21:11:31;;;;;;;59.45;30.70;;;;;;;-4.52;97.55;102368.72;4995982;28;20041;-90
2022/12/17 21:16:13;;;;;;;61.70;31.73;;;;;;;-4.38;97.02;102364.00;5018358;28;20044;-90
2022/12/17 21:18:52;;;;;;;65.07;33.83;;;;;;;-4.28;97.00;102370.28;5006903;28;20042;-90
2022/12/17 21:21:40;;;;;;;65.63;33.80;;;;;;;-4.30;96.93;102371.94;5005740;28;20045;-90
2022/12/17 21:24:52;;;;;;;64.38;34.10;;;;;;;-4.46;96.97;102371.47;5021327;28;20328;-90
2022/12/17 21:27:44;;;;;;;63.85;35.13;;;;;;;-4.47;96.96;102382.59;5010013;28;20052;-90
2022/12/17 21:31:06;;;;;;;66.22;34.65;;;;;;;-4.45;96.85;102385.22;4991666;28;20042;-89
2022/12/17 21:33:37;;;;;;;61.05;32.17;;;;;;;-4.47;97.10;102389.44;5022382;28;20132;-90
2022/12/17 21:36:11;;;;;;;55.60;30.40;;;;;;;-4.37;96.91;102391.44;4994338;28;20042;-90
2022/12/17 21:39:19;;;;;;;57.00;30.08;;;;;;;-4.29;96.50;102396.81;5001610;28;20104;-88
2022/12/17 21:43:00;;;;;;;57.60;30.77;;;;;;;-4.26;96.71;102394.34;4984033;28;20057;-92
2022/12/17 21:45:40;;;;;;;53.38;27.58;;;;;;;-4.22;95.84;102391.94;4980557;28;20046;-89
2022/12/17 21:48:10;;;;;;;54.70;27.42;;;;;;;-4.21;95.87;102395.38;5012823;28;20030;-90
2022/12/17 21:51:18;;;;;;;51.42;27.98;;;;;;;-4.18;95.81;102400.63;4955861;28;20110;-89
2022/12/17 21:53:53;;;;;;;52.28;27.27;;;;;;;-4.18;95.47;102396.34;4932442;29;20078;-90
2022/12/17 21:56:38;;;;;;;54.72;28.70;;;;;;;-4.14;94.69;102403.31;4907180;29;20047;-89
2022/12/17 21:59:12;;;;;;;56.42;29.15;;;;;;;-4.15;94.31;102400.69;4919462;29;20044;-90
2022/12/17 22:01:55;;;;;;;48.17;25.50;;;;;;;-4.19;94.43;102416.84;4886628;29;20049;-90
2022/12/17 22:04:56;;;;;;;50.47;25.25;;;;;;;-4.19;94.28;102412.56;4929058;29;20096;-90
2022/12/17 22:07:40;;;;;;;44.97;25.33;;;;;;;-4.22;93.63;102412.50;4922035;29;20103;-89
2022/12/17 22:10:29;;;;;;;48.42;25.77;;;;;;;-4.20;93.14;102412.53;4922473;29;20059;-90
2022/12/17 22:17:04;;;;;;;48.20;27.60;;;;;;;-4.23;93.97;102417.56;4929964;29;20066;-89
2022/12/17 22:19:37;;;;;;;46.08;26.88;;;;;;;-4.26;93.79;102410.66;4953552;29;20120;-89
2022/12/17 22:22:09;;;;;;;50.13;26.63;;;;;;;-4.25;93.37;102417.53;4964649;28;20114;-89
2022/12/17 22:24:40;;;;;;;48.72;25.67;;;;;;;-4.24;92.62;102426.13;5001766;28;20048;-91
2022/12/17 22:27:16;;;;;;;46.15;25.80;;;;;;;-4.27;93.06;102428.63;4988207;28;20042;-90
2022/12/17 22:32:58;;;;;;;50.47;27.25;;;;;;;-4.93;93.75;102429.94;4985829;28;20076;-89
2022/12/17 22:35:41;;;;;;;44.58;24.45;;;;;;;-4.95;95.16;102434.16;4986580;28;20080;-90
2022/12/17 22:38:34;;;;;;;53.63;28.73;;;;;;;-4.92;95.33;102444.50;4990319;28;20096;-90
2022/12/17 22:44:47;;;;;;;54.00;30.38;;;;;;;-5.01;95.65;102448.47;4993208;28;20049;-90
2022/12/17 22:47:26;;;;;;;57.45;31.92;;;;;;;-5.08;96.54;102444.84;5000799;28;20041;-89
2022/12/17 22:49:56;;;;;;;52.05;30.77;;;;;;;-5.06;96.15;102447.44;4980760;28;20076;-89
2022/12/17 22:52:26;;;;;;;53.78;30.65;;;;;;;-4.95;96.22;102457.28;5003231;28;20057;-91
2022/12/17 22:55:01;;;;;;;57.08;30.42;;;;;;;-4.87;95.97;102466.09;5010500;28;20049;-90
2022/12/17 22:57:33;;;;;;;56.38;30.42;;;;;;;-4.83;95.48;102472.22;5005041;28;20039;-91
2022/12/17 23:00:27;;;;;;;53.10;29.70;;;;;;;-4.78;95.32;102462.97;5001336;28;20054;-90
2022/12/17 23:02:59;;;;;;;46.95;28.20;;;;;;;-4.76;95.02;102471.59;4994321;28;20042;-90
2022/12/17 23:06:12;;;;;;;45.33;28.17;;;;;;;-4.76;94.86;102469.03;5028447;28;20044;-93
2022/12/17 23:08:42;;;;;;;45.75;27.13;;;;;;;-4.74;94.60;102471.66;4983715;28;20062;-93
2022/12/17 23:11:12;;;;;;;53.00;28.05;;;;;;;-4.72;94.45;102464.88;4994698;23;20133;-65
2022/12/17 23:13:41;;;;;;;52.83;30.55;;;;;;;-4.72;94.72;102477.72;4991882;28;20112;-65
2022/12/17 23:16:12;;;;;;;48.40;28.90;;;;;;;-4.76;94.35;102466.47;4976799;28;20106;-64
2022/12/17 23:18:40;;;;;;;48.92;29.30;;;;;;;-4.76;93.79;102468.16;4982519;28;20329;-65
2022/12/17 23:21:14;;;;;;;51.53;29.58;;;;;;;-4.77;93.96;102474.09;4977502;28;20137;-68
2022/12/17 23:23:41;;;;;;;50.47;30.45;;;;;;;-4.77;94.15;102479.25;4976031;28;20086;-66
2022/12/17 23:26:15;;;;;;;49.55;28.65;;;;;;;-4.79;93.97;102478.34;4974535;28;20065;-66
2022/12/17 23:28:43;;;;;;;48.33;28.85;;;;;;;-4.81;93.50;102478.28;4963422;28;20519;-66
2022/12/17 23:31:16;;;;;;;52.88;30.38;;;;;;;-4.81;93.54;102480.00;4976701;28;20198;-63
2022/12/17 23:33:44;;;;;;;49.05;28.70;;;;;;;-4.83;93.35;102482.50;4984028;28;20054;-68
2022/12/17 23:36:16;;;;;;;46.22;27.92;;;;;;;-4.86;93.86;102483.28;4973876;28;22065;-65
2022/12/17 23:38:44;;;;;;;51.72;30.20;;;;;;;-4.89;93.10;102480.59;4981200;28;20096;-63
2022/12/17 23:41:16;;;;;;;52.40;29.15;;;;;;;-4.91;93.42;102476.22;4976204;28;20122;-68
2022/12/17 23:43:44;;;;;;;52.33;29.33;;;;;;;-4.93;93.95;102473.59;4980540;28;20048;-68
2022/12/17 23:46:11;;;;;;;52.67;28.85;;;;;;;-4.97;94.23;102478.59;4989719;28;20054;-66
2022/12/17 23:48:40;;;;;;;47.20;27.98;;;;;;;-4.93;93.84;102476.16;4987735;28;20041;-67
2022/12/17 23:51:13;;;;;;;50.58;28.88;;;;;;;-4.92;93.52;102482.19;4979674;28;20525;-65
2022/12/17 23:53:41;;;;;;;49.13;27.55;;;;;;;-5.02;94.15;102481.00;4980813;28;20078;-66
2022/12/17 23:56:17;;;;;;;48.55;27.83;;;;;;;-5.02;94.40;102485.25;4989551;28;20050;-67
2022/12/17 23:58:45;;;;;;;47.60;28.50;;;;;;;-5.02;94.97;102486.13;4981084;28;20055;-65
